Terminal Aerodrome Forecast
Issued by NWS

Home | Current Version | Previous Version | Text Only | Print | Product List | Glossary On
Versions: 1 2 3 4 5 6 7 8 9 10 11 12
355
FTUS42 TJSJ 262325
TAFJMZ
TAF
TJMZ 262325Z 2700/2724 00000KT P6SM FEW060
     FM271630 29010KT P6SM VCTS BKN040CB
     FM272300 05005KT P6SM FEW060
      AMD NOT SKED=

USA.gov is the U.S. government's official web portal to all federal, state and local government web resources and services.